Torres Canon, Colorado
Current Conditions -  °F | °C
As of 5:06 PM on Friday 28 Nov 2014 (Local Time) from KVTP Reporting Station
Clear Clear  
Wind Chill: 32°   Ceiling: Unl
Heat Index: 39°   Visibility: 10mi
Dew Point:   Wind: 12mph
Humidity: 28%   Direction: 200°SSW
Pressure: 30.13"   Gusts: 23mph
Location:  37.1566°N, 104.956°W
Report Text: KVTP 290006Z AUTO 20010G20KT 170V250 10SM CLR 04/M13 A3013 RMK AO2
Loading
Personal Weather Stations






























Interactive Weather Map New forecast layout! Learn more

10-Day Weather Forecast

Advertisements
Track Severe Weather on mobile